createdAt,value
2018-03-27T00:00:58.165Z,61.71
2018-03-27T00:01:58.184Z,61.9
2018-03-27T00:02:58.195Z,61.8
2018-03-27T00:03:58.486Z,61.71
2018-03-27T00:04:58.509Z,61.71
2018-03-27T00:05:58.513Z,61.71
2018-03-27T00:06:58.244Z,61.8
2018-03-27T00:07:58.537Z,61.8
2018-03-27T00:08:58.551Z,61.71
2018-03-27T00:09:58.575Z,61.8
2018-03-27T00:10:58.577Z,61.32
2018-03-27T00:11:58.597Z,61.71
2018-03-27T00:12:58.603Z,61.32
2018-03-27T00:13:58.615Z,61.52
2018-03-27T00:14:58.631Z,61.96
2018-03-27T00:15:58.358Z,61.32
2018-03-27T00:16:58.660Z,62.08
2018-03-27T00:17:58.672Z,61.9
2018-03-27T00:18:58.396Z,61.9
2018-03-27T00:19:58.693Z,61.48
2018-03-27T00:20:58.421Z,61.52
2018-03-27T00:21:58.718Z,61.9
2018-03-27T00:22:58.740Z,61.9
2018-03-27T00:23:58.747Z,61.8
2018-03-27T00:24:58.760Z,61.9
2018-03-27T00:25:58.771Z,61.77
2018-03-27T00:26:58.782Z,61.77
2018-03-27T00:27:58.793Z,61.61
2018-03-27T00:28:58.809Z,61.77
2018-03-27T00:29:58.819Z,61.48
2018-03-27T00:30:58.552Z,61.58
2018-03-27T00:31:58.849Z,61.87
2018-03-27T00:32:58.858Z,61.87
2018-03-27T00:33:58.869Z,61.48
2018-03-27T00:34:58.599Z,61.68
2018-03-27T00:35:58.907Z,61.77
2018-03-27T00:36:58.923Z,61.87
2018-03-27T00:37:58.926Z,61.58
2018-03-27T00:38:58.933Z,61.77
2018-03-27T00:39:58.948Z,61.87
2018-03-27T00:40:58.958Z,61.58
2018-03-27T00:41:58.979Z,61.58
2018-03-27T00:42:58.704Z,61.68
2018-03-27T00:43:59.001Z,61.77
2018-03-27T00:44:59.014Z,61.77
2018-03-27T00:45:59.020Z,61.87
2018-03-27T00:46:59.034Z,61.77
2018-03-27T00:47:59.048Z,61.77
2018-03-27T00:48:59.064Z,61.77
2018-03-27T00:49:59.073Z,61.58
2018-03-27T00:50:59.084Z,61.58
2018-03-27T00:51:59.103Z,61.77
2018-03-27T00:52:59.109Z,62.53
2018-03-27T00:53:59.125Z,62.15
2018-03-27T00:54:59.144Z,62.34
2018-03-27T00:55:58.866Z,62.34
2018-03-27T00:56:59.169Z,62.34
2018-03-27T00:57:59.174Z,62.43
2018-03-27T00:58:59.192Z,62.43
2018-03-27T00:59:58.917Z,62.43
2018-03-27T01:00:59.212Z,62.34
2018-03-27T01:01:58.942Z,62.34
2018-03-27T01:02:59.239Z,62.53
2018-03-27T01:03:58.969Z,62.43
2018-03-27T01:04:59.269Z,62.43
2018-03-27T01:05:59.274Z,62.05
2018-03-27T01:06:59.003Z,62.24
2018-03-27T01:07:59.019Z,62.15
2018-03-27T01:08:59.031Z,62.24
2018-03-27T01:09:59.328Z,62.34
2018-03-27T01:10:59.339Z,62.43
2018-03-27T01:11:59.355Z,62.43
2018-03-27T01:12:59.077Z,62.34
2018-03-27T01:13:59.091Z,62.24
2018-03-27T01:14:59.385Z,61.96
2018-03-27T01:15:59.401Z,61.87
2018-03-27T01:16:59.416Z,61.87
2018-03-27T01:17:59.427Z,62.15
2018-03-27T01:18:59.440Z,62.24
2018-03-27T01:19:59.464Z,62.15
2018-03-27T01:20:59.464Z,62.24
2018-03-27T01:21:59.473Z,62.15
2018-03-27T01:22:59.205Z,62.15
2018-03-27T01:23:59.504Z,62.34
2018-03-27T01:24:59.230Z,61.96
2018-03-27T01:25:59.531Z,62.15
2018-03-27T01:26:59.544Z,62.34
2018-03-27T01:27:59.551Z,62.24
2018-03-27T01:28:59.567Z,62.43
2018-03-27T01:29:59.576Z,61.96
2018-03-27T01:30:59.587Z,62.05
2018-03-27T01:31:59.609Z,62.24
2018-03-27T01:32:59.615Z,61.96
2018-03-27T01:33:59.340Z,61.96
2018-03-27T01:34:59.640Z,62.24
2018-03-27T01:35:59.655Z,62.43
2018-03-27T01:36:59.378Z,62.53
2018-03-27T01:37:59.396Z,62.53
2018-03-27T01:38:59.690Z,62.62
2018-03-27T01:39:59.697Z,62.43
2018-03-27T01:40:59.714Z,62.53
2018-03-27T01:41:59.730Z,62.53
2018-03-27T01:42:59.457Z,62.53
2018-03-27T01:43:59.748Z,62.53
2018-03-27T01:44:59.763Z,62.43
2018-03-27T01:45:59.773Z,62.53
2018-03-27T01:46:59.503Z,62.62
2018-03-27T01:47:59.520Z,62.62
2018-03-27T01:48:59.814Z,62.62
2018-03-27T01:49:59.827Z,62.43
2018-03-27T01:50:59.552Z,62.43
2018-03-27T01:51:59.846Z,62.43
2018-03-27T01:52:59.866Z,62.43
2018-03-27T01:53:59.889Z,62.43
2018-03-27T01:54:59.604Z,62.43
2018-03-27T01:55:59.904Z,62.05
2018-03-27T01:56:59.914Z,62.05
2018-03-27T01:57:59.925Z,62.05
2018-03-27T01:58:59.940Z,62.15
2018-03-27T01:59:59.664Z,62.34
2018-03-27T02:00:59.676Z,62.15
2018-03-27T02:01:59.979Z,62.53
2018-03-27T02:02:59.990Z,62.43
2018-03-27T02:03:59.998Z,62.43
2018-03-27T02:05:00.012Z,62.43
2018-03-27T02:06:00.031Z,62.43
2018-03-27T02:07:00.186Z,62.5
2018-03-27T02:08:00.054Z,62.4
2018-03-27T02:09:00.063Z,62.43
2018-03-27T02:10:00.073Z,62.21
2018-03-27T02:11:00.115Z,62.43
2018-03-27T02:11:59.818Z,62.34
2018-03-27T02:13:00.112Z,62.43
2018-03-27T02:13:59.845Z,62.5
2018-03-27T02:15:00.135Z,62.24
2018-03-27T02:16:00.245Z,62.24
2018-03-27T02:17:00.160Z,62.53
2018-03-27T02:18:00.172Z,62.12
2018-03-27T02:19:00.185Z,62.62
2018-03-27T02:20:00.197Z,62.24
2018-03-27T02:21:00.209Z,62.59
2018-03-27T02:22:00.234Z,62.5
2018-03-27T02:23:00.236Z,62.72
2018-03-27T02:24:00.244Z,62.72
2018-03-27T02:25:00.253Z,62.78
2018-03-27T02:25:59.984Z,62.78
2018-03-27T02:27:00.279Z,62.78
2018-03-27T02:28:00.010Z,62.78
2018-03-27T02:29:00.305Z,62.4
2018-03-27T02:30:00.317Z,63.01
2018-03-27T02:31:00.044Z,62.78
2018-03-27T02:32:00.059Z,62.5
2018-03-27T02:33:00.421Z,63.07
2018-03-27T02:34:00.376Z,62.53
2018-03-27T02:35:00.418Z,62.88
2018-03-27T02:36:00.106Z,62.59
2018-03-27T02:37:00.405Z,62.88
2018-03-27T02:38:00.421Z,62.88
2018-03-27T02:39:00.144Z,63.17
2018-03-27T02:40:00.157Z,63.17
2018-03-27T02:41:00.457Z,62.81
2018-03-27T02:42:00.470Z,63.07
2018-03-27T02:43:00.488Z,63.29
2018-03-27T02:44:00.487Z,63.07
2018-03-27T02:45:00.221Z,63.2
2018-03-27T02:46:00.513Z,63.07
2018-03-27T02:47:00.536Z,63.17
2018-03-27T02:48:00.539Z,62.91
2018-03-27T02:49:00.563Z,62.91
2018-03-27T02:50:00.573Z,62.78
2018-03-27T02:51:00.575Z,62.53
2018-03-27T02:52:00.617Z,63.01
2018-03-27T02:53:00.598Z,62.5
2018-03-27T02:54:00.334Z,62.53
2018-03-27T02:55:00.339Z,62.78
2018-03-27T02:56:00.639Z,62.5
2018-03-27T02:57:00.363Z,62.88
2018-03-27T02:58:00.673Z,62.72
2018-03-27T02:59:00.676Z,62.88
2018-03-27T03:00:00.682Z,62.88
2018-03-27T03:01:00.693Z,63.17
2018-03-27T03:02:00.425Z,63.17
2018-03-27T03:03:00.730Z,62.81
2018-03-27T03:04:00.740Z,63.1
2018-03-27T03:05:00.461Z,62.97
2018-03-27T03:06:00.757Z,62.88
2018-03-27T03:07:00.897Z,63.07
2018-03-27T03:08:01.061Z,62.97
2018-03-27T03:09:00.893Z,62.78
2018-03-27T03:10:00.577Z,62.69
2018-03-27T03:11:00.534Z,63.2
2018-03-27T03:12:00.928Z,62.91
2018-03-27T03:13:00.958Z,62.78
2018-03-27T03:14:00.659Z,63.17
2018-03-27T03:15:00.720Z,63.17
2018-03-27T03:16:00.633Z,63.17
2018-03-27T03:17:01.002Z,63.07
2018-03-27T03:18:01.295Z,62.88
2018-03-27T03:19:00.668Z,63.1
2018-03-27T03:20:00.649Z,63.17
2018-03-27T03:21:01.138Z,62.88
2018-03-27T03:22:01.036Z,62.78
2018-03-27T03:23:01.160Z,62.88
2018-03-27T03:24:00.783Z,62.78
2018-03-27T03:25:00.907Z,62.88
2018-03-27T03:26:01.001Z,63.17
2018-03-27T03:27:01.160Z,63.17
2018-03-27T03:28:00.858Z,62.81
2018-03-27T03:29:01.136Z,63.2
2018-03-27T03:30:01.126Z,62.97
2018-03-27T03:31:01.076Z,63.07
2018-03-27T03:32:01.034Z,63.07
2018-03-27T03:33:01.247Z,62.91
2018-03-27T03:34:00.810Z,62.81
2018-03-27T03:35:01.207Z,62.78
2018-03-27T03:36:00.978Z,63.1
2018-03-27T03:37:01.299Z,63.2
2018-03-27T03:38:01.507Z,62.97
2018-03-27T03:39:01.249Z,62.97
2018-03-27T03:40:01.303Z,63.1
2018-03-27T03:41:01.322Z,63.1
2018-03-27T03:42:01.051Z,63.64
2018-03-27T03:43:01.427Z,63.57
2018-03-27T03:44:01.384Z,63.48
2018-03-27T03:45:00.956Z,63.1
2018-03-27T03:46:00.975Z,63.01
2018-03-27T03:47:01.137Z,63.07
2018-03-27T03:48:01.276Z,62.91
2018-03-27T03:49:01.287Z,63.1
2018-03-27T03:50:01.288Z,62.81
2018-03-27T03:51:01.315Z,63.2
2018-03-27T03:52:01.313Z,62.97
2018-03-27T03:53:01.326Z,63.1
2018-03-27T03:54:01.056Z,63.1
2018-03-27T03:55:01.346Z,63.17
2018-03-27T03:56:01.084Z,63.57
2018-03-27T03:57:01.089Z,63.35
2018-03-27T03:58:01.110Z,63.67
2018-03-27T03:59:01.396Z,63.64
2018-03-27T04:00:01.127Z,63.48
2018-03-27T04:01:01.423Z,63.64
2018-03-27T04:02:01.155Z,63.67
2018-03-27T04:03:01.450Z,63.64
2018-03-27T04:04:01.187Z,63.64
2018-03-27T04:05:01.472Z,63.39
2018-03-27T04:06:01.483Z,63.48
2018-03-27T04:07:01.497Z,63.29
2018-03-27T04:08:01.526Z,63.01
2018-03-27T04:09:01.519Z,63.2
2018-03-27T04:10:01.549Z,63.1
2018-03-27T04:11:01.541Z,63.2
2018-03-27T04:12:01.559Z,63.57
2018-03-27T04:13:01.285Z,63.17
2018-03-27T04:14:01.296Z,63.76
2018-03-27T04:15:01.308Z,63.01
2018-03-27T04:16:01.428Z,63.45
2018-03-27T04:17:01.331Z,63.57
2018-03-27T04:18:01.635Z,63.54
2018-03-27T04:19:01.357Z,63.54
2018-03-27T04:20:01.373Z,63.48
2018-03-27T04:21:01.379Z,63.67
2018-03-27T04:22:01.676Z,63.54
2018-03-27T04:23:01.690Z,63.54
2018-03-27T04:24:01.417Z,63.54
2018-03-27T04:25:01.714Z,63.54
2018-03-27T04:26:01.458Z,63.45
2018-03-27T04:27:01.456Z,63.35
2018-03-27T04:28:01.749Z,63.35
2018-03-27T04:29:01.483Z,63.26
2018-03-27T04:30:01.492Z,63.35
2018-03-27T04:31:01.529Z,63.73
2018-03-27T04:32:01.809Z,63.54
2018-03-27T04:33:01.527Z,63.26
2018-03-27T04:34:01.822Z,63.35
2018-03-27T04:35:01.839Z,63.35
2018-03-27T04:36:01.567Z,63.54
2018-03-27T04:37:01.858Z,63.45
2018-03-27T04:38:01.591Z,63.35
2018-03-27T04:39:01.595Z,63.35
2018-03-27T04:40:01.617Z,63.35
2018-03-27T04:41:01.905Z,63.35
2018-03-27T04:42:01.917Z,63.35
2018-03-27T04:43:01.931Z,63.35
2018-03-27T04:44:01.656Z,63.45
2018-03-27T04:45:01.671Z,63.35
2018-03-27T04:46:01.964Z,63.26
2018-03-27T04:47:02.034Z,63.54
2018-03-27T04:48:01.705Z,63.54
2018-03-27T04:49:02.000Z,63.45
2018-03-27T04:50:02.019Z,63.54
2018-03-27T04:51:02.034Z,63.35
2018-03-27T04:52:01.763Z,63.54
2018-03-27T04:53:01.766Z,63.26
2018-03-27T04:54:02.133Z,63.54
2018-03-27T04:55:02.083Z,63.54
2018-03-27T04:56:01.804Z,63.54
2018-03-27T04:57:02.105Z,63.45
2018-03-27T04:58:02.111Z,63.54
2018-03-27T04:59:01.838Z,63.64
2018-03-27T05:00:01.850Z,63.54
2018-03-27T05:01:01.861Z,63.64
2018-03-27T05:02:01.899Z,63.54
2018-03-27T05:03:02.172Z,63.54
2018-03-27T05:04:02.193Z,63.35
2018-03-27T05:05:02.196Z,63.64
2018-03-27T05:06:01.928Z,63.64
2018-03-27T05:07:01.938Z,63.64
2018-03-27T05:08:02.290Z,63.92
2018-03-27T05:09:01.958Z,63.73
2018-03-27T05:10:02.255Z,63.83
2018-03-27T05:11:02.266Z,63.83
2018-03-27T05:12:02.062Z,63.92
2018-03-27T05:13:02.289Z,63.83
2018-03-27T05:14:02.300Z,63.73
2018-03-27T05:15:02.312Z,63.92
2018-03-27T05:16:02.041Z,64.02
2018-03-27T05:17:02.360Z,63.92
2018-03-27T05:18:02.354Z,63.92
2018-03-27T05:19:02.363Z,63.83
2018-03-27T05:20:02.090Z,64.02
2018-03-27T05:21:02.385Z,64.02
2018-03-27T05:22:02.114Z,63.92
2018-03-27T05:23:02.412Z,63.92
2018-03-27T05:24:02.423Z,63.92
2018-03-27T05:25:02.434Z,63.83
2018-03-27T05:26:02.464Z,63.92
2018-03-27T05:27:02.457Z,63.92
2018-03-27T05:28:02.473Z,63.92
2018-03-27T05:29:02.485Z,63.73
2018-03-27T05:30:02.494Z,63.73
2018-03-27T05:31:02.505Z,63.92
2018-03-27T05:32:02.519Z,63.83
2018-03-27T05:33:02.533Z,63.83
2018-03-27T05:34:02.539Z,64.3
2018-03-27T05:35:02.551Z,64.4
2018-03-27T05:36:02.568Z,63.92
2018-03-27T05:37:02.577Z,64.78
2018-03-27T05:38:02.319Z,64.3
2018-03-27T05:39:02.316Z,64.97
2018-03-27T05:40:02.334Z,64.97
2018-03-27T05:41:02.627Z,65.25
2018-03-27T05:42:02.352Z,65.44
2018-03-27T05:43:02.363Z,65.06
2018-03-27T05:44:02.662Z,65.25
2018-03-27T05:45:02.393Z,65.82
2018-03-27T05:46:02.685Z,65.63
2018-03-27T05:47:02.697Z,65.54
2018-03-27T05:48:02.706Z,65.73
2018-03-27T05:49:02.717Z,65.44
2018-03-27T05:50:02.732Z,65.73
2018-03-27T05:51:02.746Z,65.63
2018-03-27T05:52:02.755Z,65.73
2018-03-27T05:53:02.495Z,65.67
2018-03-27T05:54:02.801Z,65.67
2018-03-27T05:55:02.793Z,65.76
2018-03-27T05:56:02.558Z,65.57
2018-03-27T05:57:02.814Z,65.76
2018-03-27T05:58:02.825Z,65.57
2018-03-27T05:59:02.838Z,65.86
2018-03-27T06:00:02.862Z,65.86
2018-03-27T06:01:02.861Z,65.38
2018-03-27T06:02:02.897Z,65.09
2018-03-27T06:03:02.605Z,65.19
2018-03-27T06:04:02.620Z,64.81
2018-03-27T06:05:02.917Z,65.28
2018-03-27T06:06:02.640Z,64.72
2018-03-27T06:07:02.939Z,65.09
2018-03-27T06:08:02.690Z,64.81
2018-03-27T06:09:02.958Z,65.28
2018-03-27T06:10:02.697Z,64.43
2018-03-27T06:11:02.982Z,64.24
2018-03-27T06:12:02.996Z,64.81
2018-03-27T06:13:03.008Z,64.81
2018-03-27T06:14:03.023Z,64.14
2018-03-27T06:15:03.041Z,64.14
2018-03-27T06:16:02.769Z,64.53
2018-03-27T06:17:03.057Z,64.34
2018-03-27T06:18:02.812Z,64.24
2018-03-27T06:19:03.082Z,64.43
2018-03-27T06:20:02.820Z,64.53
2018-03-27T06:21:03.115Z,64.34
2018-03-27T06:22:03.116Z,64.62
2018-03-27T06:23:02.847Z,64.34
2018-03-27T06:24:03.159Z,64.34
2018-03-27T06:25:03.154Z,64.53
2018-03-27T06:26:03.176Z,63.95
2018-03-27T06:27:03.183Z,64.14
2018-03-27T06:28:03.188Z,64.24
2018-03-27T06:29:02.918Z,63.95
2018-03-27T06:30:03.232Z,64.24
2018-03-27T06:31:03.227Z,64.24
2018-03-27T06:32:03.262Z,64.24
2018-03-27T06:33:03.255Z,64.14
2018-03-27T06:34:03.044Z,63.86
2018-03-27T06:35:03.295Z,64.14
2018-03-27T06:36:03.293Z,64.24
2018-03-27T06:37:03.299Z,64.14
2018-03-27T06:38:03.322Z,64.14
2018-03-27T06:39:03.375Z,64.43
2018-03-27T06:40:03.350Z,64.34
2018-03-27T06:41:03.348Z,64.05
2018-03-27T06:42:03.486Z,64.05
2018-03-27T06:43:03.374Z,63.57
2018-03-27T06:44:03.104Z,63.57
2018-03-27T06:45:03.398Z,63.57
2018-03-27T06:46:03.423Z,64.14
2018-03-27T06:47:03.139Z,64.05
2018-03-27T06:48:03.164Z,64.05
2018-03-27T06:49:03.497Z,64.05
2018-03-27T06:50:03.178Z,64.14
2018-03-27T06:51:03.473Z,64.05
2018-03-27T06:52:03.484Z,64.05
2018-03-27T06:53:03.498Z,63.95
2018-03-27T06:54:03.572Z,64.05
2018-03-27T06:55:03.520Z,64.05
2018-03-27T06:56:03.255Z,63.95
2018-03-27T06:57:03.546Z,64.05
2018-03-27T06:58:03.274Z,63.76
2018-03-27T06:59:03.649Z,63.76
2018-03-27T07:00:03.588Z,63.95
2018-03-27T07:01:03.315Z,63.95
2018-03-27T07:02:03.349Z,63.86
2018-03-27T07:03:03.644Z,63.95
2018-03-27T07:04:03.710Z,63.95
2018-03-27T07:05:03.642Z,64.05
2018-03-27T07:06:03.734Z,63.76
2018-03-27T07:07:03.388Z,63.79
2018-03-27T07:08:03.411Z,63.89
2018-03-27T07:09:03.724Z,63.76
2018-03-27T07:10:03.722Z,63.89
2018-03-27T07:11:03.764Z,63.6
2018-03-27T07:12:03.741Z,64.18
2018-03-27T07:13:03.759Z,63.99
2018-03-27T07:14:03.759Z,64.18
2018-03-27T07:15:03.770Z,63.99
2018-03-27T07:16:03.510Z,64.08
2018-03-27T07:17:03.516Z,63.99
2018-03-27T07:18:03.820Z,63.7
2018-03-27T07:19:03.865Z,63.6
2018-03-27T07:20:03.879Z,63.6
2018-03-27T07:21:03.844Z,63.7
2018-03-27T07:22:03.856Z,63.51
2018-03-27T07:23:03.876Z,63.51
2018-03-27T07:24:03.629Z,62.94
2018-03-27T07:25:03.914Z,62.94
2018-03-27T07:26:03.904Z,62.65
2018-03-27T07:27:04.043Z,62.37
2018-03-27T07:28:03.648Z,62.59
2018-03-27T07:29:03.659Z,62.12
2018-03-27T07:30:03.675Z,62.4
2018-03-27T07:31:03.685Z,62.4
2018-03-27T07:32:03.699Z,62.3
2018-03-27T07:33:03.710Z,62.59
2018-03-27T07:34:04.012Z,62.21
2018-03-27T07:35:03.734Z,62.21
2018-03-27T07:36:03.748Z,61.83
2018-03-27T07:37:03.759Z,61.93
2018-03-27T07:38:04.068Z,61.93
2018-03-27T07:39:04.084Z,61.45
2018-03-27T07:40:04.083Z,61.45
2018-03-27T07:41:04.101Z,61.83
2018-03-27T07:42:04.113Z,61.64
2018-03-27T07:43:03.840Z,61.35
2018-03-27T07:44:04.138Z,61.45
2018-03-27T07:45:04.149Z,61.55
2018-03-27T07:46:04.164Z,61.83
2018-03-27T07:47:04.172Z,61.93
2018-03-27T07:48:04.186Z,61.35
2018-03-27T07:49:03.912Z,61.35
2018-03-27T07:50:03.928Z,61.26
2018-03-27T07:51:04.235Z,61.26
2018-03-27T07:52:03.953Z,61.35
2018-03-27T07:53:03.962Z,61.35
2018-03-27T07:54:03.977Z,61.38
2018-03-27T07:55:04.274Z,61.19
2018-03-27T07:56:04.006Z,61.1
2018-03-27T07:57:04.298Z,60.91
2018-03-27T07:58:04.029Z,61.1
2018-03-27T07:59:04.324Z,61.1
2018-03-27T08:00:04.052Z,60.72
2018-03-27T08:01:04.357Z,61
2018-03-27T08:02:04.084Z,61.29
2018-03-27T08:03:04.384Z,60.82
2018-03-27T08:04:04.391Z,61.1
2018-03-27T08:05:04.401Z,60.82
2018-03-27T08:06:04.423Z,60.72
2018-03-27T08:07:04.434Z,60.53
2018-03-27T08:08:04.445Z,60.34
2018-03-27T08:09:04.171Z,60.82
2018-03-27T08:10:04.470Z,61.1
2018-03-27T08:11:04.255Z,60.91
2018-03-27T08:12:04.499Z,60.18
2018-03-27T08:13:04.511Z,60.56
2018-03-27T08:14:04.520Z,60.53
2018-03-27T08:15:04.249Z,60.56
2018-03-27T08:16:04.262Z,60.85
2018-03-27T08:17:04.560Z,60.66
2018-03-27T08:18:04.290Z,59.99
2018-03-27T08:19:04.584Z,59.8
2018-03-27T08:20:04.315Z,59.8
2018-03-27T08:21:04.344Z,59.7
2018-03-27T08:22:04.625Z,59.7
2018-03-27T08:23:04.638Z,59.42
2018-03-27T08:24:04.892Z,59.23
2018-03-27T08:25:04.379Z,58.84
2018-03-27T08:26:04.395Z,58.75
2018-03-27T08:27:04.703Z,58.94
2018-03-27T08:28:04.421Z,59.03
2018-03-27T08:29:04.722Z,58.94
2018-03-27T08:30:04.447Z,58.84
2018-03-27T08:31:04.460Z,58.94
2018-03-27T08:32:04.475Z,58.94
2018-03-27T08:33:04.774Z,58.94
2018-03-27T08:34:04.501Z,59.03
2018-03-27T08:35:04.513Z,58.3
2018-03-27T08:36:04.818Z,58.56
2018-03-27T08:37:04.541Z,58.5
2018-03-27T08:38:04.840Z,58.59
2018-03-27T08:39:04.878Z,58.69
2018-03-27T08:40:04.970Z,58.69
2018-03-27T08:41:04.596Z,58.69
2018-03-27T08:42:04.614Z,58.69
2018-03-27T08:43:04.622Z,57.82
2018-03-27T08:44:04.921Z,57.54
2018-03-27T08:45:04.938Z,57.73
2018-03-27T08:46:04.971Z,57.35
2018-03-27T08:47:04.958Z,57.35
2018-03-27T08:48:04.689Z,57.45
2018-03-27T08:49:04.986Z,57.73
2018-03-27T08:50:04.769Z,57.35
2018-03-27T08:51:04.729Z,57.54
2018-03-27T08:52:05.041Z,57.82
2018-03-27T08:53:04.757Z,56.97
2018-03-27T08:54:04.796Z,57.45
2018-03-27T08:55:04.784Z,57.26
2018-03-27T08:56:05.201Z,57
2018-03-27T08:57:05.096Z,57.35
2018-03-27T08:58:04.828Z,57.38
2018-03-27T08:59:04.843Z,57.26
2018-03-27T09:00:05.193Z,57.19
2018-03-27T09:01:05.151Z,56.81
2018-03-27T09:02:05.167Z,57
2018-03-27T09:03:04.897Z,56.71
2018-03-27T09:04:05.192Z,56.62
2018-03-27T09:05:04.928Z,56.43
2018-03-27T09:06:04.937Z,56.81
2018-03-27T09:07:04.950Z,56.62
2018-03-27T09:08:04.968Z,56.71
2018-03-27T09:09:04.980Z,56.71
2018-03-27T09:10:05.001Z,56.71
2018-03-27T09:11:05.009Z,56.71
2018-03-27T09:12:05.022Z,56.33
2018-03-27T09:13:05.320Z,56.43
2018-03-27T09:14:05.333Z,56.52
2018-03-27T09:15:05.344Z,56.14
2018-03-27T09:16:05.076Z,55.57
2018-03-27T09:17:05.376Z,55.57
2018-03-27T09:18:05.388Z,55.38
2018-03-27T09:19:05.119Z,55.38
2018-03-27T09:20:05.469Z,55.28
2018-03-27T09:21:05.429Z,55.66
2018-03-27T09:22:05.162Z,55.31
2018-03-27T09:23:05.463Z,55.21
2018-03-27T09:24:05.472Z,55.79
2018-03-27T09:25:05.256Z,55.12
2018-03-27T09:26:05.220Z,55.12
2018-03-27T09:27:05.514Z,55.12
2018-03-27T09:28:05.539Z,55.02
2018-03-27T09:29:05.262Z,54.93
2018-03-27T09:30:05.563Z,55.41
2018-03-27T09:31:05.290Z,54.83
2018-03-27T09:32:05.587Z,54.96
2018-03-27T09:33:05.607Z,54.57
2018-03-27T09:34:05.335Z,53.91
2018-03-27T09:35:05.350Z,53.72
2018-03-27T09:36:05.361Z,53.91
2018-03-27T09:37:05.662Z,54.1
2018-03-27T09:38:05.674Z,53.33
2018-03-27T09:39:05.689Z,53.62
2018-03-27T09:40:05.423Z,53.36
2018-03-27T09:41:05.722Z,53.84
2018-03-27T09:42:05.460Z,53.27
2018-03-27T09:43:05.465Z,53.36
2018-03-27T09:44:05.480Z,53.27
2018-03-27T09:45:05.786Z,53.36
2018-03-27T09:46:05.794Z,53.49
2018-03-27T09:47:05.810Z,52.59
2018-03-27T09:48:05.823Z,52.72
2018-03-27T09:49:05.837Z,52.81
2018-03-27T09:50:05.568Z,52.62
2018-03-27T09:51:05.588Z,52.81
2018-03-27T09:52:05.602Z,52.62
2018-03-27T09:53:05.614Z,52.43
2018-03-27T09:54:05.912Z,52.34
2018-03-27T09:55:05.644Z,52.17
2018-03-27T09:56:05.943Z,51.98
2018-03-27T09:57:05.673Z,51.7
2018-03-27T09:58:05.976Z,51.41
2018-03-27T09:59:05.989Z,51.79
2018-03-27T10:00:06.004Z,51.31
2018-03-27T10:01:05.738Z,51.31
2018-03-27T10:02:06.033Z,51.03
2018-03-27T10:03:06.050Z,50.55
2018-03-27T10:04:06.073Z,50.64
2018-03-27T10:05:05.804Z,49.8
2018-03-27T10:06:05.817Z,50.09
2018-03-27T10:07:06.112Z,49.8
2018-03-27T10:08:06.132Z,49.8
2018-03-27T10:09:05.863Z,50.19
2018-03-27T10:10:06.168Z,50.19
2018-03-27T10:11:06.198Z,50.48
2018-03-27T10:12:06.193Z,49.93
2018-03-27T10:13:06.206Z,49.55
2018-03-27T10:14:05.940Z,50.12
2018-03-27T10:15:05.965Z,49.26
2018-03-27T10:16:06.477Z,48.97
2018-03-27T10:17:06.273Z,48.68
2018-03-27T10:18:06.291Z,48.39
2018-03-27T10:19:06.022Z,48.3
2018-03-27T10:20:06.321Z,48.02
2018-03-27T10:21:06.342Z,48.33
2018-03-27T10:22:06.117Z,47.94
2018-03-27T10:23:06.378Z,48.04
2018-03-27T10:24:06.389Z,48.04
2018-03-27T10:25:06.118Z,47.94
2018-03-27T10:26:06.136Z,47.85
2018-03-27T10:27:06.166Z,47.66
2018-03-27T10:28:06.172Z,47.18
2018-03-27T10:29:06.468Z,47.56
2018-03-27T10:30:06.208Z,47.47
2018-03-27T10:31:06.219Z,47.37
2018-03-27T10:32:06.236Z,46.8
2018-03-27T10:33:06.577Z,46.89
2018-03-27T10:34:06.269Z,46.61
2018-03-27T10:35:06.573Z,46.61
2018-03-27T10:36:06.588Z,46.61
2018-03-27T10:37:06.333Z,45.94
2018-03-27T10:38:06.618Z,45.55
2018-03-27T10:39:06.352Z,45.26
2018-03-27T10:40:06.659Z,45.36
2018-03-27T10:41:06.669Z,45.55
2018-03-27T10:42:06.683Z,45.65
2018-03-27T10:43:06.706Z,45.55
2018-03-27T10:44:06.721Z,45.65
2018-03-27T10:45:06.744Z,45.84
2018-03-27T10:46:06.469Z,45.65
2018-03-27T10:47:06.487Z,45.65
2018-03-27T10:48:06.506Z,45.55
2018-03-27T10:49:06.822Z,45.36
2018-03-27T10:50:06.825Z,45.55
2018-03-27T10:51:06.558Z,45.74
2018-03-27T10:52:06.857Z,45.74
2018-03-27T10:53:06.871Z,45.74
2018-03-27T10:54:06.609Z,45.55
2018-03-27T10:55:06.624Z,45.36
2018-03-27T10:56:06.640Z,45.26
2018-03-27T10:57:06.944Z,45.26
2018-03-27T10:58:06.962Z,45.36
2018-03-27T10:59:06.976Z,45
2018-03-27T11:00:06.995Z,45.09
2018-03-27T11:01:06.728Z,44.81
2018-03-27T11:02:07.031Z,44.81
2018-03-27T11:03:06.763Z,44.43
2018-03-27T11:04:06.781Z,44.43
2018-03-27T11:05:07.084Z,44.33
2018-03-27T11:06:06.816Z,44.33
2018-03-27T11:07:07.115Z,44.23
2018-03-27T11:08:07.136Z,44.04
2018-03-27T11:09:07.148Z,44.13
2018-03-27T11:10:07.229Z,44.52
2018-03-27T11:11:07.189Z,44.33
2018-03-27T11:12:07.205Z,44.23
2018-03-27T11:13:07.227Z,44.23
2018-03-27T11:14:06.951Z,44.13
2018-03-27T11:15:06.971Z,44.23
2018-03-27T11:16:07.274Z,44.33
2018-03-27T11:17:07.005Z,44.52
2018-03-27T11:18:07.323Z,44.52
2018-03-27T11:19:07.046Z,44.43
2018-03-27T11:20:07.057Z,44.21
2018-03-27T11:21:07.361Z,44.04
2018-03-27T11:22:07.380Z,43.76
2018-03-27T11:23:07.400Z,43.56
2018-03-27T11:24:07.421Z,43.92
2018-03-27T11:25:07.431Z,43.63
2018-03-27T11:26:07.163Z,44.12
2018-03-27T11:27:07.231Z,44.12
2018-03-27T11:28:07.486Z,44.02
2018-03-27T11:29:07.498Z,44.21
2018-03-27T11:30:07.243Z,44.12
2018-03-27T11:31:07.536Z,43.92
2018-03-27T11:32:07.269Z,43.73
2018-03-27T11:33:07.579Z,43.35
2018-03-27T11:34:07.304Z,43.26
2018-03-27T11:35:07.612Z,43.16
2018-03-27T11:36:07.624Z,43.54
2018-03-27T11:37:07.640Z,43.54
2018-03-27T11:38:07.657Z,43.44
2018-03-27T11:39:07.677Z,43.44
2018-03-27T11:40:07.693Z,43.44
2018-03-27T11:41:07.713Z,43.63
2018-03-27T11:42:07.745Z,43.73
2018-03-27T11:43:07.462Z,43.54
2018-03-27T11:44:07.480Z,43.35
2018-03-27T11:45:07.788Z,42.87
2018-03-27T11:46:07.518Z,42.49
2018-03-27T11:47:07.823Z,42.7
2018-03-27T11:48:07.554Z,42.6
2018-03-27T11:49:07.854Z,42.99
2018-03-27T11:50:07.880Z,42.6
2018-03-27T11:51:07.887Z,42.9
2018-03-27T11:52:07.904Z,43.27
2018-03-27T11:53:07.931Z,43.18
2018-03-27T11:54:07.961Z,42.6
2018-03-27T11:55:07.676Z,42.13
2018-03-27T11:56:07.721Z,42.41
2018-03-27T11:57:07.999Z,42.32
2018-03-27T11:58:08.011Z,42.13
2018-03-27T11:59:08.032Z,42.24
2018-03-27T12:00:08.051Z,41.86
2018-03-27T12:01:08.068Z,42.05
2018-03-27T12:02:08.091Z,41.96
2018-03-27T12:03:08.104Z,41.77
2018-03-27T12:04:07.843Z,41.96
2018-03-27T12:05:08.142Z,41.96
2018-03-27T12:06:07.990Z,41.97
2018-03-27T12:07:08.176Z,42.17
2018-03-27T12:08:07.913Z,42.36
2018-03-27T12:09:08.219Z,42.27
2018-03-27T12:10:08.232Z,42.17
2018-03-27T12:11:08.248Z,42.07
2018-03-27T12:12:07.985Z,41.88
2018-03-27T12:13:08.288Z,42.1
2018-03-27T12:14:08.021Z,41.9
2018-03-27T12:15:08.325Z,41.71
2018-03-27T12:16:08.057Z,41.42
2018-03-27T12:17:08.081Z,41.71
2018-03-27T12:18:08.096Z,40.75
2018-03-27T12:19:08.117Z,41.04
2018-03-27T12:20:08.132Z,41.04
2018-03-27T12:21:08.432Z,41.13
2018-03-27T12:22:08.172Z,40.67
2018-03-27T12:23:08.472Z,40.58
2018-03-27T12:24:08.206Z,40.39
2018-03-27T12:25:08.227Z,40.29
2018-03-27T12:26:08.246Z,40.2
2018-03-27T12:27:08.545Z,40
2018-03-27T12:28:08.564Z,40.2
2018-03-27T12:29:08.588Z,39.91
2018-03-27T12:30:08.606Z,40.1
2018-03-27T12:31:08.623Z,39.72
2018-03-27T12:32:08.644Z,39.72
2018-03-27T12:33:08.662Z,39.91
2018-03-27T12:34:08.395Z,40
2018-03-27T12:35:08.413Z,39.91
2018-03-27T12:36:08.488Z,39.72
2018-03-27T12:37:08.453Z,40
2018-03-27T12:38:08.472Z,39.81
2018-03-27T12:39:08.772Z,40.02
2018-03-27T12:40:08.508Z,39.72
2018-03-27T12:41:08.582Z,39.45
2018-03-27T12:42:08.879Z,39.64
2018-03-27T12:43:08.850Z,39.64
2018-03-27T12:44:08.868Z,39.35
2018-03-27T12:45:08.895Z,39.26
2018-03-27T12:46:08.905Z,39.45
2018-03-27T12:47:08.924Z,39.35
2018-03-27T12:48:08.944Z,39.54
2018-03-27T12:49:08.980Z,39.83
2018-03-27T12:50:08.699Z,39.83
2018-03-27T12:51:09.002Z,39.83
2018-03-27T12:52:09.028Z,39.64
2018-03-27T12:53:09.041Z,39.93
2018-03-27T12:54:09.059Z,39.83
2018-03-27T12:55:08.800Z,40.02
2018-03-27T12:56:09.120Z,39.93